sensor_id;sensor_type;location;lat;lon;timestamp;P1;durP1;ratioP1;P2;durP2;ratioP2
79478;SDS011;68943;49.472;17.970;2024-01-16T00:01:55;3.22;;;1.33;;
79478;SDS011;68943;49.472;17.970;2024-01-16T00:04:21;4.43;;;2.88;;
79478;SDS011;68943;49.472;17.970;2024-01-16T00:06:47;5.97;;;2.97;;
79478;SDS011;68943;49.472;17.970;2024-01-16T00:09:13;5.53;;;2.40;;
79478;SDS011;68943;49.472;17.970;2024-01-16T00:11:40;1.58;;;0.82;;
79478;SDS011;68943;49.472;17.970;2024-01-16T00:14:06;1.52;;;0.85;;
79478;SDS011;68943;49.472;17.970;2024-01-16T00:16:32;3.83;;;2.55;;
79478;SDS011;68943;49.472;17.970;2024-01-16T00:18:58;4.07;;;2.88;;
79478;SDS011;68943;49.472;17.970;2024-01-16T00:21:24;4.13;;;2.47;;
79478;SDS011;68943;49.472;17.970;2024-01-16T00:23:52;3.40;;;2.13;;
79478;SDS011;68943;49.472;17.970;2024-01-16T00:26:24;5.20;;;1.85;;
79478;SDS011;68943;49.472;17.970;2024-01-16T00:28:50;3.13;;;2.10;;
79478;SDS011;68943;49.472;17.970;2024-01-16T00:31:16;6.13;;;2.58;;
79478;SDS011;68943;49.472;17.970;2024-01-16T00:33:42;38.50;;;6.18;;
79478;SDS011;68943;49.472;17.970;2024-01-16T00:36:08;4.63;;;2.47;;
79478;SDS011;68943;49.472;17.970;2024-01-16T00:38:34;5.05;;;2.97;;
79478;SDS011;68943;49.472;17.970;2024-01-16T00:41:00;3.53;;;2.67;;
79478;SDS011;68943;49.472;17.970;2024-01-16T00:43:26;5.22;;;2.90;;
79478;SDS011;68943;49.472;17.970;2024-01-16T00:45:52;5.07;;;2.63;;
79478;SDS011;68943;49.472;17.970;2024-01-16T00:48:19;2.95;;;1.88;;
79478;SDS011;68943;49.472;17.970;2024-01-16T00:50:46;3.20;;;2.50;;
79478;SDS011;68943;49.472;17.970;2024-01-16T00:53:15;4.03;;;2.80;;
79478;SDS011;68943;49.472;17.970;2024-01-16T00:55:41;5.75;;;2.05;;
79478;SDS011;68943;49.472;17.970;2024-01-16T00:58:08;3.20;;;1.90;;
79478;SDS011;68943;49.472;17.970;2024-01-16T01:00:34;2.70;;;1.73;;
79478;SDS011;68943;49.472;17.970;2024-01-16T01:03:02;3.60;;;2.40;;
79478;SDS011;68943;49.472;17.970;2024-01-16T01:05:28;3.42;;;1.95;;
79478;SDS011;68943;49.472;17.970;2024-01-16T01:07:55;5.60;;;2.58;;
79478;SDS011;68943;49.472;17.970;2024-01-16T01:10:21;3.33;;;2.17;;
79478;SDS011;68943;49.472;17.970;2024-01-16T01:12:47;2.85;;;1.80;;
79478;SDS011;68943;49.472;17.970;2024-01-16T01:15:13;3.58;;;2.42;;
79478;SDS011;68943;49.472;17.970;2024-01-16T01:17:40;4.20;;;2.22;;
79478;SDS011;68943;49.472;17.970;2024-01-16T01:20:07;6.80;;;2.95;;
79478;SDS011;68943;49.472;17.970;2024-01-16T01:22:34;3.85;;;2.25;;
79478;SDS011;68943;49.472;17.970;2024-01-16T01:25:00;4.20;;;2.75;;
79478;SDS011;68943;49.472;17.970;2024-01-16T01:27:26;4.13;;;2.60;;
79478;SDS011;68943;49.472;17.970;2024-01-16T01:29:52;3.38;;;1.90;;
79478;SDS011;68943;49.472;17.970;2024-01-16T01:32:18;6.18;;;2.28;;
79478;SDS011;68943;49.472;17.970;2024-01-16T01:34:44;2.65;;;1.77;;
79478;SDS011;68943;49.472;17.970;2024-01-16T01:37:10;5.30;;;2.78;;
79478;SDS011;68943;49.472;17.970;2024-01-16T01:39:37;7.10;;;3.05;;
79478;SDS011;68943;49.472;17.970;2024-01-16T01:42:03;4.03;;;2.45;;
79478;SDS011;68943;49.472;17.970;2024-01-16T01:44:29;2.20;;;1.27;;
79478;SDS011;68943;49.472;17.970;2024-01-16T01:46:55;3.15;;;2.50;;
79478;SDS011;68943;49.472;17.970;2024-01-16T01:49:22;4.70;;;2.40;;
79478;SDS011;68943;49.472;17.970;2024-01-16T01:51:48;6.10;;;2.75;;
79478;SDS011;68943;49.472;17.970;2024-01-16T01:54:15;3.45;;;2.63;;
79478;SDS011;68943;49.472;17.970;2024-01-16T01:56:42;4.63;;;2.13;;
79478;SDS011;68943;49.472;17.970;2024-01-16T01:59:09;4.32;;;2.97;;
79478;SDS011;68943;49.472;17.970;2024-01-16T02:01:36;3.97;;;1.90;;
79478;SDS011;68943;49.472;17.970;2024-01-16T02:04:02;3.20;;;1.83;;
79478;SDS011;68943;49.472;17.970;2024-01-16T02:06:29;4.20;;;2.05;;
79478;SDS011;68943;49.472;17.970;2024-01-16T02:08:55;3.53;;;1.90;;
79478;SDS011;68943;49.472;17.970;2024-01-16T02:11:21;3.15;;;1.70;;
79478;SDS011;68943;49.472;17.970;2024-01-16T02:13:47;2.97;;;2.42;;
79478;SDS011;68943;49.472;17.970;2024-01-16T02:16:20;3.53;;;1.98;;
79478;SDS011;68943;49.472;17.970;2024-01-16T02:18:46;2.38;;;1.50;;
79478;SDS011;68943;49.472;17.970;2024-01-16T02:21:15;4.97;;;3.00;;
79478;SDS011;68943;49.472;17.970;2024-01-16T02:23:42;1.92;;;1.55;;
79478;SDS011;68943;49.472;17.970;2024-01-16T02:26:08;4.28;;;1.70;;
79478;SDS011;68943;49.472;17.970;2024-01-16T02:28:34;3.97;;;1.90;;
79478;SDS011;68943;49.472;17.970;2024-01-16T02:31:00;3.78;;;1.80;;
79478;SDS011;68943;49.472;17.970;2024-01-16T02:33:27;4.07;;;2.20;;
79478;SDS011;68943;49.472;17.970;2024-01-16T02:35:53;4.05;;;3.08;;
79478;SDS011;68943;49.472;17.970;2024-01-16T02:38:19;4.40;;;2.47;;
79478;SDS011;68943;49.472;17.970;2024-01-16T02:40:45;3.63;;;1.73;;
79478;SDS011;68943;49.472;17.970;2024-01-16T02:43:11;3.97;;;1.95;;
79478;SDS011;68943;49.472;17.970;2024-01-16T02:45:37;1.40;;;0.95;;
79478;SDS011;68943;49.472;17.970;2024-01-16T02:48:03;3.47;;;1.67;;
79478;SDS011;68943;49.472;17.970;2024-01-16T02:50:29;4.05;;;2.13;;
79478;SDS011;68943;49.472;17.970;2024-01-16T02:52:55;2.30;;;1.30;;
79478;SDS011;68943;49.472;17.970;2024-01-16T02:55:22;3.85;;;2.90;;
79478;SDS011;68943;49.472;17.970;2024-01-16T02:57:48;4.38;;;2.55;;
79478;SDS011;68943;49.472;17.970;2024-01-16T03:00:14;6.32;;;2.90;;
79478;SDS011;68943;49.472;17.970;2024-01-16T03:02:40;2.05;;;1.77;;
79478;SDS011;68943;49.472;17.970;2024-01-16T03:05:06;5.50;;;2.13;;
79478;SDS011;68943;49.472;17.970;2024-01-16T03:07:32;5.18;;;2.38;;
79478;SDS011;68943;49.472;17.970;2024-01-16T03:09:59;2.45;;;1.33;;
79478;SDS011;68943;49.472;17.970;2024-01-16T03:12:25;4.85;;;2.45;;
79478;SDS011;68943;49.472;17.970;2024-01-16T03:14:51;4.97;;;2.58;;
79478;SDS011;68943;49.472;17.970;2024-01-16T03:17:18;4.03;;;2.65;;
79478;SDS011;68943;49.472;17.970;2024-01-16T03:19:44;4.70;;;2.35;;
79478;SDS011;68943;49.472;17.970;2024-01-16T03:22:10;4.13;;;2.40;;
79478;SDS011;68943;49.472;17.970;2024-01-16T03:24:36;7.20;;;1.70;;
79478;SDS011;68943;49.472;17.970;2024-01-16T03:27:02;2.58;;;1.85;;
79478;SDS011;68943;49.472;17.970;2024-01-16T03:29:29;4.68;;;1.92;;
79478;SDS011;68943;49.472;17.970;2024-01-16T03:31:55;5.38;;;3.05;;
79478;SDS011;68943;49.472;17.970;2024-01-16T03:34:22;5.80;;;2.00;;
79478;SDS011;68943;49.472;17.970;2024-01-16T03:36:48;5.07;;;2.75;;
79478;SDS011;68943;49.472;17.970;2024-01-16T03:39:14;3.03;;;1.38;;
79478;SDS011;68943;49.472;17.970;2024-01-16T03:41:40;1.85;;;1.75;;
79478;SDS011;68943;49.472;17.970;2024-01-16T03:44:06;2.92;;;2.20;;
79478;SDS011;68943;49.472;17.970;2024-01-16T03:46:33;4.25;;;2.80;;
79478;SDS011;68943;49.472;17.970;2024-01-16T03:48:59;5.45;;;2.65;;
79478;SDS011;68943;49.472;17.970;2024-01-16T03:51:25;2.28;;;1.50;;
79478;SDS011;68943;49.472;17.970;2024-01-16T03:53:51;1.90;;;1.40;;
79478;SDS011;68943;49.472;17.970;2024-01-16T03:56:17;3.25;;;2.40;;
79478;SDS011;68943;49.472;17.970;2024-01-16T03:58:43;4.88;;;2.88;;
79478;SDS011;68943;49.472;17.970;2024-01-16T04:01:09;7.20;;;2.75;;
79478;SDS011;68943;49.472;17.970;2024-01-16T04:03:35;3.85;;;2.38;;
79478;SDS011;68943;49.472;17.970;2024-01-16T04:06:01;2.72;;;1.58;;
79478;SDS011;68943;49.472;17.970;2024-01-16T04:08:27;1.75;;;1.27;;
79478;SDS011;68943;49.472;17.970;2024-01-16T04:10:53;3.42;;;1.63;;
79478;SDS011;68943;49.472;17.970;2024-01-16T04:13:19;3.38;;;1.63;;
79478;SDS011;68943;49.472;17.970;2024-01-16T04:15:46;5.43;;;2.03;;
79478;SDS011;68943;49.472;17.970;2024-01-16T04:18:12;1.60;;;1.45;;
79478;SDS011;68943;49.472;17.970;2024-01-16T04:20:38;5.68;;;2.17;;
79478;SDS011;68943;49.472;17.970;2024-01-16T04:23:04;2.70;;;1.67;;
79478;SDS011;68943;49.472;17.970;2024-01-16T04:25:30;3.83;;;1.98;;
79478;SDS011;68943;49.472;17.970;2024-01-16T04:27:56;0.85;;;0.73;;
79478;SDS011;68943;49.472;17.970;2024-01-16T04:30:22;2.35;;;1.17;;
79478;SDS011;68943;49.472;17.970;2024-01-16T04:32:48;2.53;;;1.42;;
79478;SDS011;68943;49.472;17.970;2024-01-16T04:35:14;1.77;;;1.45;;
79478;SDS011;68943;49.472;17.970;2024-01-16T04:37:40;2.13;;;1.00;;
79478;SDS011;68943;49.472;17.970;2024-01-16T04:40:07;1.27;;;0.70;;
79478;SDS011;68943;49.472;17.970;2024-01-16T04:42:33;2.55;;;2.17;;
79478;SDS011;68943;49.472;17.970;2024-01-16T04:44:59;1.73;;;1.60;;
79478;SDS011;68943;49.472;17.970;2024-01-16T04:47:25;3.67;;;1.77;;
79478;SDS011;68943;49.472;17.970;2024-01-16T04:49:51;2.70;;;1.35;;
79478;SDS011;68943;49.472;17.970;2024-01-16T04:52:17;5.57;;;1.65;;
79478;SDS011;68943;49.472;17.970;2024-01-16T04:54:44;2.30;;;2.00;;
79478;SDS011;68943;49.472;17.970;2024-01-16T04:57:10;2.85;;;1.48;;
79478;SDS011;68943;49.472;17.970;2024-01-16T04:59:37;1.33;;;1.13;;
79478;SDS011;68943;49.472;17.970;2024-01-16T05:02:03;3.70;;;2.80;;
79478;SDS011;68943;49.472;17.970;2024-01-16T05:04:29;3.72;;;1.50;;
79478;SDS011;68943;49.472;17.970;2024-01-16T05:06:55;1.15;;;0.82;;
79478;SDS011;68943;49.472;17.970;2024-01-16T05:09:21;1.77;;;1.10;;
79478;SDS011;68943;49.472;17.970;2024-01-16T05:11:47;2.58;;;1.35;;
79478;SDS011;68943;49.472;17.970;2024-01-16T05:14:14;4.25;;;1.95;;
79478;SDS011;68943;49.472;17.970;2024-01-16T05:16:40;4.68;;;1.85;;
79478;SDS011;68943;49.472;17.970;2024-01-16T05:19:06;1.33;;;0.88;;
79478;SDS011;68943;49.472;17.970;2024-01-16T05:21:32;1.27;;;1.17;;
79478;SDS011;68943;49.472;17.970;2024-01-16T05:23:58;6.88;;;2.13;;
79478;SDS011;68943;49.472;17.970;2024-01-16T05:26:24;1.55;;;1.35;;
79478;SDS011;68943;49.472;17.970;2024-01-16T05:28:51;4.50;;;2.13;;
79478;SDS011;68943;49.472;17.970;2024-01-16T05:31:17;2.70;;;1.55;;
79478;SDS011;68943;49.472;17.970;2024-01-16T05:33:44;2.33;;;1.33;;
79478;SDS011;68943;49.472;17.970;2024-01-16T05:36:10;2.35;;;1.08;;
79478;SDS011;68943;49.472;17.970;2024-01-16T05:38:37;4.65;;;1.23;;
79478;SDS011;68943;49.472;17.970;2024-01-16T05:41:03;2.47;;;1.48;;
79478;SDS011;68943;49.472;17.970;2024-01-16T05:43:29;2.17;;;1.65;;
79478;SDS011;68943;49.472;17.970;2024-01-16T05:45:55;1.25;;;0.63;;
79478;SDS011;68943;49.472;17.970;2024-01-16T05:48:21;3.05;;;1.23;;
79478;SDS011;68943;49.472;17.970;2024-01-16T05:50:47;1.80;;;1.70;;
79478;SDS011;68943;49.472;17.970;2024-01-16T05:53:13;2.58;;;1.23;;
79478;SDS011;68943;49.472;17.970;2024-01-16T05:55:39;3.33;;;2.05;;
79478;SDS011;68943;49.472;17.970;2024-01-16T05:58:05;2.47;;;1.90;;
79478;SDS011;68943;49.472;17.970;2024-01-16T06:00:31;3.20;;;1.65;;
79478;SDS011;68943;49.472;17.970;2024-01-16T06:02:59;0.68;;;0.68;;
79478;SDS011;68943;49.472;17.970;2024-01-16T06:05:25;1.52;;;1.15;;
79478;SDS011;68943;49.472;17.970;2024-01-16T06:07:51;2.83;;;1.48;;
79478;SDS011;68943;49.472;17.970;2024-01-16T06:10:17;7.18;;;2.40;;
79478;SDS011;68943;49.472;17.970;2024-01-16T06:12:44;9.90;;;3.85;;
79478;SDS011;68943;49.472;17.970;2024-01-16T06:15:10;3.33;;;1.70;;
79478;SDS011;68943;49.472;17.970;2024-01-16T06:17:39;17.25;;;7.38;;
79478;SDS011;68943;49.472;17.970;2024-01-16T06:20:05;6.45;;;2.50;;
79478;SDS011;68943;49.472;17.970;2024-01-16T06:22:31;1.65;;;1.10;;
79478;SDS011;68943;49.472;17.970;2024-01-16T06:24:57;26.60;;;10.38;;
79478;SDS011;68943;49.472;17.970;2024-01-16T06:27:23;76.30;;;27.65;;
79478;SDS011;68943;49.472;17.970;2024-01-16T06:29:50;18.10;;;7.03;;
79478;SDS011;68943;49.472;17.970;2024-01-16T06:32:16;26.33;;;9.77;;
79478;SDS011;68943;49.472;17.970;2024-01-16T06:34:42;34.30;;;10.85;;
79478;SDS011;68943;49.472;17.970;2024-01-16T06:37:08;3.10;;;1.42;;
79478;SDS011;68943;49.472;17.970;2024-01-16T06:39:36;4.13;;;2.30;;
79478;SDS011;68943;49.472;17.970;2024-01-16T06:42:03;4.20;;;1.67;;
79478;SDS011;68943;49.472;17.970;2024-01-16T06:44:31;26.63;;;8.05;;
79478;SDS011;68943;49.472;17.970;2024-01-16T06:46:57;33.45;;;12.48;;
79478;SDS011;68943;49.472;17.970;2024-01-16T06:49:23;157.50;;;51.75;;
79478;SDS011;68943;49.472;17.970;2024-01-16T06:51:49;60.40;;;21.08;;
79478;SDS011;68943;49.472;17.970;2024-01-16T06:54:15;48.83;;;18.20;;
79478;SDS011;68943;49.472;17.970;2024-01-16T06:56:41;29.55;;;12.20;;
79478;SDS011;68943;49.472;17.970;2024-01-16T06:59:07;29.02;;;13.27;;
79478;SDS011;68943;49.472;17.970;2024-01-16T07:01:33;15.60;;;9.35;;
79478;SDS011;68943;49.472;17.970;2024-01-16T07:03:59;46.42;;;12.80;;
79478;SDS011;68943;49.472;17.970;2024-01-16T07:06:26;52.80;;;17.55;;
79478;SDS011;68943;49.472;17.970;2024-01-16T07:08:52;60.45;;;21.02;;
79478;SDS011;68943;49.472;17.970;2024-01-16T07:11:18;25.00;;;11.05;;
79478;SDS011;68943;49.472;17.970;2024-01-16T07:13:46;53.72;;;19.63;;
79478;SDS011;68943;49.472;17.970;2024-01-16T07:16:12;79.60;;;34.03;;
79478;SDS011;68943;49.472;17.970;2024-01-16T07:18:39;20.35;;;8.43;;
79478;SDS011;68943;49.472;17.970;2024-01-16T07:21:15;44.95;;;21.35;;
79478;SDS011;68943;49.472;17.970;2024-01-16T07:23:41;28.50;;;13.88;;
79478;SDS011;68943;49.472;17.970;2024-01-16T07:26:08;8.27;;;4.95;;
79478;SDS011;68943;49.472;17.970;2024-01-16T07:28:34;1.88;;;1.15;;
79478;SDS011;68943;49.472;17.970;2024-01-16T07:31:00;16.77;;;10.88;;
79478;SDS011;68943;49.472;17.970;2024-01-16T07:33:26;8.15;;;4.88;;
79478;SDS011;68943;49.472;17.970;2024-01-16T07:35:52;14.57;;;8.30;;
79478;SDS011;68943;49.472;17.970;2024-01-16T07:38:18;6.05;;;2.00;;
79478;SDS011;68943;49.472;17.970;2024-01-16T07:40:44;14.60;;;8.00;;
79478;SDS011;68943;49.472;17.970;2024-01-16T07:43:10;18.42;;;10.43;;
79478;SDS011;68943;49.472;17.970;2024-01-16T07:45:37;10.40;;;5.40;;
79478;SDS011;68943;49.472;17.970;2024-01-16T07:48:03;11.02;;;6.38;;
79478;SDS011;68943;49.472;17.970;2024-01-16T07:50:29;3.83;;;1.98;;
79478;SDS011;68943;49.472;17.970;2024-01-16T07:52:55;4.35;;;3.85;;
79478;SDS011;68943;49.472;17.970;2024-01-16T07:55:21;17.65;;;9.18;;
79478;SDS011;68943;49.472;17.970;2024-01-16T07:57:47;11.48;;;8.32;;
79478;SDS011;68943;49.472;17.970;2024-01-16T08:00:13;12.02;;;6.25;;
79478;SDS011;68943;49.472;17.970;2024-01-16T08:02:40;3.00;;;1.45;;
79478;SDS011;68943;49.472;17.970;2024-01-16T08:05:07;3.22;;;1.88;;
79478;SDS011;68943;49.472;17.970;2024-01-16T08:07:33;5.45;;;2.70;;
79478;SDS011;68943;49.472;17.970;2024-01-16T08:09:59;7.05;;;3.75;;
79478;SDS011;68943;49.472;17.970;2024-01-16T08:12:27;6.35;;;4.40;;
79478;SDS011;68943;49.472;17.970;2024-01-16T08:14:53;2.42;;;1.35;;
79478;SDS011;68943;49.472;17.970;2024-01-16T08:17:19;1.98;;;0.73;;
79478;SDS011;68943;49.472;17.970;2024-01-16T08:19:45;4.95;;;3.47;;
79478;SDS011;68943;49.472;17.970;2024-01-16T08:22:11;4.35;;;2.70;;
79478;SDS011;68943;49.472;17.970;2024-01-16T08:24:37;9.95;;;6.78;;
79478;SDS011;68943;49.472;17.970;2024-01-16T08:27:03;1.30;;;0.85;;
79478;SDS011;68943;49.472;17.970;2024-01-16T08:29:30;18.08;;;12.50;;
79478;SDS011;68943;49.472;17.970;2024-01-16T08:31:57;9.82;;;5.35;;
79478;SDS011;68943;49.472;17.970;2024-01-16T08:34:24;6.28;;;3.80;;
79478;SDS011;68943;49.472;17.970;2024-01-16T08:36:50;7.25;;;4.65;;
79478;SDS011;68943;49.472;17.970;2024-01-16T08:39:19;6.55;;;5.50;;
79478;SDS011;68943;49.472;17.970;2024-01-16T08:41:45;1.58;;;1.00;;
79478;SDS011;68943;49.472;17.970;2024-01-16T08:44:11;4.35;;;2.80;;
79478;SDS011;68943;49.472;17.970;2024-01-16T08:46:37;2.13;;;1.20;;
79478;SDS011;68943;49.472;17.970;2024-01-16T08:49:03;5.50;;;3.92;;
79478;SDS011;68943;49.472;17.970;2024-01-16T08:51:29;3.35;;;2.75;;
79478;SDS011;68943;49.472;17.970;2024-01-16T08:53:55;4.40;;;3.05;;
79478;SDS011;68943;49.472;17.970;2024-01-16T08:56:22;2.08;;;1.75;;
79478;SDS011;68943;49.472;17.970;2024-01-16T08:58:48;1.92;;;1.45;;
79478;SDS011;68943;49.472;17.970;2024-01-16T09:01:14;3.35;;;3.15;;
79478;SDS011;68943;49.472;17.970;2024-01-16T09:03:40;9.43;;;3.88;;
79478;SDS011;68943;49.472;17.970;2024-01-16T09:06:08;6.45;;;3.25;;
79478;SDS011;68943;49.472;17.970;2024-01-16T09:08:35;5.07;;;4.03;;
79478;SDS011;68943;49.472;17.970;2024-01-16T09:11:01;4.18;;;1.38;;
79478;SDS011;68943;49.472;17.970;2024-01-16T09:13:27;7.32;;;5.65;;
79478;SDS011;68943;49.472;17.970;2024-01-16T09:15:53;2.83;;;1.27;;
79478;SDS011;68943;49.472;17.970;2024-01-16T09:18:20;6.13;;;2.53;;
79478;SDS011;68943;49.472;17.970;2024-01-16T09:20:46;1.13;;;1.02;;
79478;SDS011;68943;49.472;17.970;2024-01-16T09:23:13;8.35;;;5.10;;
79478;SDS011;68943;49.472;17.970;2024-01-16T09:25:39;2.20;;;0.73;;
79478;SDS011;68943;49.472;17.970;2024-01-16T09:28:05;3.20;;;2.28;;
79478;SDS011;68943;49.472;17.970;2024-01-16T09:30:31;5.90;;;4.53;;
79478;SDS011;68943;49.472;17.970;2024-01-16T09:32:58;3.90;;;2.80;;
79478;SDS011;68943;49.472;17.970;2024-01-16T09:35:24;5.88;;;2.88;;
79478;SDS011;68943;49.472;17.970;2024-01-16T09:37:50;2.70;;;1.88;;
79478;SDS011;68943;49.472;17.970;2024-01-16T09:40:16;3.53;;;2.38;;
79478;SDS011;68943;49.472;17.970;2024-01-16T09:42:42;4.80;;;4.07;;
79478;SDS011;68943;49.472;17.970;2024-01-16T09:45:09;5.28;;;2.13;;
79478;SDS011;68943;49.472;17.970;2024-01-16T09:47:36;3.08;;;1.30;;
79478;SDS011;68943;49.472;17.970;2024-01-16T09:50:03;1.65;;;1.30;;
79478;SDS011;68943;49.472;17.970;2024-01-16T09:52:29;3.55;;;2.80;;
79478;SDS011;68943;49.472;17.970;2024-01-16T09:54:56;2.33;;;1.25;;
79478;SDS011;68943;49.472;17.970;2024-01-16T09:57:24;5.28;;;2.50;;
79478;SDS011;68943;49.472;17.970;2024-01-16T09:59:53;3.47;;;1.58;;
79478;SDS011;68943;49.472;17.970;2024-01-16T10:02:19;2.47;;;1.33;;
79478;SDS011;68943;49.472;17.970;2024-01-16T10:04:46;2.58;;;1.63;;
79478;SDS011;68943;49.472;17.970;2024-01-16T10:07:12;10.80;;;5.25;;
79478;SDS011;68943;49.472;17.970;2024-01-16T10:09:40;19.52;;;8.48;;
79478;SDS011;68943;49.472;17.970;2024-01-16T10:12:06;20.00;;;9.05;;
79478;SDS011;68943;49.472;17.970;2024-01-16T10:14:33;37.30;;;17.25;;
79478;SDS011;68943;49.472;17.970;2024-01-16T10:17:00;15.13;;;7.28;;
79478;SDS011;68943;49.472;17.970;2024-01-16T10:19:52;6.00;;;3.33;;
79478;SDS011;68943;49.472;17.970;2024-01-16T10:22:20;16.05;;;8.02;;
79478;SDS011;68943;49.472;17.970;2024-01-16T10:24:47;9.68;;;3.63;;
79478;SDS011;68943;49.472;17.970;2024-01-16T10:27:16;8.57;;;4.22;;
79478;SDS011;68943;49.472;17.970;2024-01-16T10:29:55;7.78;;;3.47;;
79478;SDS011;68943;49.472;17.970;2024-01-16T10:32:29;12.32;;;7.63;;
79478;SDS011;68943;49.472;17.970;2024-01-16T10:35:08;4.40;;;3.03;;
79478;SDS011;68943;49.472;17.970;2024-01-16T10:40:08;11.50;;;5.75;;
79478;SDS011;68943;49.472;17.970;2024-01-16T10:42:34;4.43;;;3.55;;
79478;SDS011;68943;49.472;17.970;2024-01-16T10:45:00;10.32;;;6.57;;
79478;SDS011;68943;49.472;17.970;2024-01-16T10:47:29;8.23;;;4.35;;
79478;SDS011;68943;49.472;17.970;2024-01-16T10:49:59;29.65;;;17.77;;
79478;SDS011;68943;49.472;17.970;2024-01-16T10:52:27;57.85;;;37.20;;
79478;SDS011;68943;49.472;17.970;2024-01-16T10:54:53;9.93;;;8.27;;
79478;SDS011;68943;49.472;17.970;2024-01-16T10:57:23;3.70;;;2.88;;
79478;SDS011;68943;49.472;17.970;2024-01-16T10:59:51;4.13;;;3.67;;
79478;SDS011;68943;49.472;17.970;2024-01-16T11:02:22;4.00;;;1.60;;
79478;SDS011;68943;49.472;17.970;2024-01-16T11:04:50;3.70;;;2.88;;
79478;SDS011;68943;49.472;17.970;2024-01-16T11:07:19;2.25;;;1.60;;
79478;SDS011;68943;49.472;17.970;2024-01-16T11:09:47;4.55;;;1.58;;
79478;SDS011;68943;49.472;17.970;2024-01-16T11:12:14;2.45;;;1.67;;
79478;SDS011;68943;49.472;17.970;2024-01-16T11:14:43;2.00;;;1.23;;
79478;SDS011;68943;49.472;17.970;2024-01-16T11:17:11;2.95;;;1.42;;
79478;SDS011;68943;49.472;17.970;2024-01-16T11:19:43;1.98;;;1.50;;
79478;SDS011;68943;49.472;17.970;2024-01-16T11:22:09;3.15;;;2.22;;
79478;SDS011;68943;49.472;17.970;2024-01-16T11:24:35;4.85;;;2.13;;
79478;SDS011;68943;49.472;17.970;2024-01-16T11:27:02;9.48;;;5.05;;
79478;SDS011;68943;49.472;17.970;2024-01-16T11:31:55;4.07;;;2.28;;
79478;SDS011;68943;49.472;17.970;2024-01-16T11:37:07;3.53;;;1.80;;
79478;SDS011;68943;49.472;17.970;2024-01-16T11:39:33;6.13;;;1.70;;
79478;SDS011;68943;49.472;17.970;2024-01-16T11:41:59;2.45;;;1.52;;
79478;SDS011;68943;49.472;17.970;2024-01-16T11:44:47;2.25;;;1.85;;
79478;SDS011;68943;49.472;17.970;2024-01-16T11:47:17;36.03;;;14.88;;
79478;SDS011;68943;49.472;17.970;2024-01-16T11:49:44;10.95;;;5.03;;
79478;SDS011;68943;49.472;17.970;2024-01-16T11:52:11;25.67;;;14.90;;
79478;SDS011;68943;49.472;17.970;2024-01-16T11:54:38;30.13;;;19.27;;
79478;SDS011;68943;49.472;17.970;2024-01-16T11:59:57;11.15;;;5.20;;
79478;SDS011;68943;49.472;17.970;2024-01-16T12:02:38;5.88;;;4.47;;
79478;SDS011;68943;49.472;17.970;2024-01-16T12:05:10;4.55;;;2.83;;
79478;SDS011;68943;49.472;17.970;2024-01-16T12:07:45;4.95;;;4.38;;
79478;SDS011;68943;49.472;17.970;2024-01-16T12:10:15;4.80;;;2.70;;
79478;SDS011;68943;49.472;17.970;2024-01-16T12:12:41;4.25;;;3.15;;
79478;SDS011;68943;49.472;17.970;2024-01-16T12:15:12;5.30;;;1.45;;
79478;SDS011;68943;49.472;17.970;2024-01-16T12:17:51;2.08;;;1.15;;
79478;SDS011;68943;49.472;17.970;2024-01-16T12:20:18;5.47;;;2.33;;
79478;SDS011;68943;49.472;17.970;2024-01-16T12:22:44;4.53;;;1.20;;
79478;SDS011;68943;49.472;17.970;2024-01-16T12:25:10;1.45;;;1.00;;
79478;SDS011;68943;49.472;17.970;2024-01-16T12:27:37;3.78;;;2.15;;
79478;SDS011;68943;49.472;17.970;2024-01-16T12:30:04;2.55;;;1.35;;
79478;SDS011;68943;49.472;17.970;2024-01-16T12:32:32;2.30;;;1.00;;
79478;SDS011;68943;49.472;17.970;2024-01-16T12:34:58;1.83;;;1.30;;
79478;SDS011;68943;49.472;17.970;2024-01-16T12:37:24;0.82;;;0.77;;
79478;SDS011;68943;49.472;17.970;2024-01-16T12:39:50;1.25;;;1.15;;
79478;SDS011;68943;49.472;17.970;2024-01-16T12:42:17;1.70;;;1.55;;
79478;SDS011;68943;49.472;17.970;2024-01-16T12:44:43;2.80;;;1.50;;
79478;SDS011;68943;49.472;17.970;2024-01-16T12:47:14;1.40;;;0.82;;
79478;SDS011;68943;49.472;17.970;2024-01-16T12:49:41;1.05;;;0.47;;
79478;SDS011;68943;49.472;17.970;2024-01-16T12:54:36;3.78;;;0.40;;
79478;SDS011;68943;49.472;17.970;2024-01-16T12:57:02;2.45;;;1.45;;
79478;SDS011;68943;49.472;17.970;2024-01-16T12:59:28;9.70;;;1.23;;
79478;SDS011;68943;49.472;17.970;2024-01-16T13:01:55;1.08;;;0.68;;
79478;SDS011;68943;49.472;17.970;2024-01-16T13:04:21;2.78;;;1.38;;
79478;SDS011;68943;49.472;17.970;2024-01-16T13:06:47;1.15;;;0.88;;
79478;SDS011;68943;49.472;17.970;2024-01-16T13:09:13;7.93;;;2.67;;
79478;SDS011;68943;49.472;17.970;2024-01-16T13:11:53;5.40;;;2.20;;
79478;SDS011;68943;49.472;17.970;2024-01-16T13:14:24;3.15;;;2.15;;
79478;SDS011;68943;49.472;17.970;2024-01-16T13:16:53;2.17;;;0.82;;
79478;SDS011;68943;49.472;17.970;2024-01-16T13:19:21;1.70;;;0.93;;
79478;SDS011;68943;49.472;17.970;2024-01-16T13:21:47;2.97;;;1.60;;
79478;SDS011;68943;49.472;17.970;2024-01-16T13:24:13;2.63;;;1.65;;
79478;SDS011;68943;49.472;17.970;2024-01-16T13:26:39;3.40;;;1.75;;
79478;SDS011;68943;49.472;17.970;2024-01-16T13:29:06;7.18;;;2.20;;
79478;SDS011;68943;49.472;17.970;2024-01-16T13:31:34;5.35;;;2.33;;
79478;SDS011;68943;49.472;17.970;2024-01-16T13:34:00;2.75;;;1.48;;
79478;SDS011;68943;49.472;17.970;2024-01-16T13:36:26;4.35;;;2.60;;
79478;SDS011;68943;49.472;17.970;2024-01-16T13:38:53;4.05;;;1.38;;
79478;SDS011;68943;49.472;17.970;2024-01-16T13:41:19;5.60;;;1.95;;
79478;SDS011;68943;49.472;17.970;2024-01-16T13:43:46;3.30;;;1.13;;
79478;SDS011;68943;49.472;17.970;2024-01-16T13:46:14;4.40;;;2.50;;
79478;SDS011;68943;49.472;17.970;2024-01-16T13:48:42;2.95;;;2.15;;
79478;SDS011;68943;49.472;17.970;2024-01-16T13:51:09;4.68;;;1.95;;
79478;SDS011;68943;49.472;17.970;2024-01-16T13:53:35;5.65;;;2.08;;
79478;SDS011;68943;49.472;17.970;2024-01-16T13:56:01;6.80;;;3.13;;
79478;SDS011;68943;49.472;17.970;2024-01-16T13:58:28;4.72;;;2.55;;
79478;SDS011;68943;49.472;17.970;2024-01-16T14:00:54;5.88;;;2.30;;
79478;SDS011;68943;49.472;17.970;2024-01-16T14:03:20;2.95;;;1.50;;
79478;SDS011;68943;49.472;17.970;2024-01-16T14:05:46;3.60;;;1.58;;
79478;SDS011;68943;49.472;17.970;2024-01-16T14:08:12;5.10;;;3.00;;
79478;SDS011;68943;49.472;17.970;2024-01-16T14:10:39;3.05;;;1.92;;
79478;SDS011;68943;49.472;17.970;2024-01-16T14:13:05;5.13;;;2.60;;
79478;SDS011;68943;49.472;17.970;2024-01-16T14:15:31;3.85;;;2.38;;
79478;SDS011;68943;49.472;17.970;2024-01-16T14:17:57;3.67;;;1.80;;
79478;SDS011;68943;49.472;17.970;2024-01-16T14:20:24;4.95;;;1.80;;
79478;SDS011;68943;49.472;17.970;2024-01-16T14:22:53;1.70;;;0.95;;
79478;SDS011;68943;49.472;17.970;2024-01-16T14:25:20;2.10;;;1.38;;
79478;SDS011;68943;49.472;17.970;2024-01-16T14:30:13;2.22;;;1.38;;
79478;SDS011;68943;49.472;17.970;2024-01-16T14:32:43;1.98;;;1.23;;
79478;SDS011;68943;49.472;17.970;2024-01-16T14:35:10;3.13;;;1.20;;
79478;SDS011;68943;49.472;17.970;2024-01-16T14:37:39;2.33;;;1.70;;
79478;SDS011;68943;49.472;17.970;2024-01-16T14:40:06;7.13;;;2.92;;
79478;SDS011;68943;49.472;17.970;2024-01-16T14:42:37;42.80;;;16.17;;
79478;SDS011;68943;49.472;17.970;2024-01-16T14:45:03;191.48;;;65.38;;